Time;durP1;ratioP1;P1;durP2;ratioP2;P2;SDS_P1;SDS_P2;PMS_P1;PMS_P2;Temp;Humidity;BMP_temperature;BMP_pressure;BME280_temperature;BME280_humidity;BME280_pressure;Samples;Min_cycle;Max_cycle;Signal;HPM_P1;HPM_P2
2022/09/01 00:02:27;;;;;;;11.57;2.60;;;17.30;99.90;;;;;;5076048;28;20111;-69
2022/09/01 00:04:58;;;;;;;12.10;3.80;;;17.10;99.90;;;;;;5073765;28;20112;-71
2022/09/01 00:07:29;;;;;;;14.30;4.00;;;17.00;99.90;;;;;;5074995;28;20043;-71
2022/09/01 00:09:55;;;;;;;;;;;17.00;99.90;;;;;;5075562;28;20024;-72
2022/09/01 00:12:24;;;;;;;11.25;3.47;;;17.10;99.90;;;;;;5073834;28;19904;-71
2022/09/01 00:14:51;;;;;;;9.63;3.20;;;17.20;99.90;;;;;;5073827;28;20031;-71
2022/09/01 00:17:19;;;;;;;10.38;2.78;;;17.20;99.90;;;;;;5074914;28;20024;-71
2022/09/01 00:19:46;;;;;;;12.75;3.15;;;17.20;99.90;;;;;;5073743;28;20384;-70
2022/09/01 00:22:14;;;;;;;11.27;3.08;;;17.40;99.90;;;;;;5075008;28;20035;-70
2022/09/01 00:24:41;;;;;;;10.60;2.55;;;17.50;99.90;;;;;;5075077;28;20047;-71
2022/09/01 00:27:09;;;;;;;11.77;2.50;;;17.40;99.90;;;;;;5075509;28;20024;-71
2022/09/01 00:29:36;;;;;;;12.77;3.70;;;17.40;99.90;;;;;;5074719;28;20539;-70
2022/09/01 00:32:04;;;;;;;12.68;2.95;;;17.30;99.90;;;;;;5074799;28;20020;-70
2022/09/01 00:34:31;;;;;;;11.15;2.95;;;17.20;99.90;;;;;;5075060;28;20047;-71
2022/09/01 00:36:59;;;;;;;11.93;3.63;;;17.30;99.90;;;;;;5074432;28;20016;-71
2022/09/01 00:39:28;;;;;;;8.73;3.22;;;17.20;99.90;;;;;;5074578;28;20547;-72
2022/09/01 00:41:55;;;;;;;10.82;2.60;;;17.30;99.90;;;;;;5074541;28;20070;-72
2022/09/01 00:44:25;;;;;;;9.32;3.00;;;17.50;99.90;;;;;;5074666;28;20085;-71
2022/09/01 00:46:55;;;;;;;9.23;2.63;;;17.60;99.90;;;;;;5073616;28;20047;-72
2022/09/01 00:49:43;;;;;;;11.13;3.50;;;17.60;99.90;;;;;;5074323;28;20028;-72
2022/09/01 00:52:42;;;;;;;9.50;2.78;;;17.60;99.90;;;;;;5072470;28;21102;-71
2022/09/01 00:55:43;;;;;;;12.43;3.38;;;17.80;99.90;;;;;;5074407;28;20020;-72
2022/09/01 00:58:10;;;;;;;11.27;2.72;;;18.10;99.90;;;;;;5072027;28;20036;-72
2022/09/01 01:00:40;;;;;;;9.07;2.45;;;18.20;99.90;;;;;;5074214;28;20075;-72
2022/09/01 01:03:10;;;;;;;10.40;3.17;;;18.30;99.90;;;;;;5074441;28;20398;-72
2022/09/01 01:05:53;;;;;;;9.43;3.10;;;18.70;99.90;;;;;;5072889;28;20021;-72
2022/09/01 01:08:34;;;;;;;7.72;2.72;;;19.00;99.90;;;;;;5074044;28;20058;-72
2022/09/01 01:11:06;;;;;;;9.85;2.70;;;19.20;99.90;;;;;;5074424;28;20104;-71
2022/09/01 01:13:50;;;;;;;9.30;2.42;;;19.30;99.90;;;;;;5072577;28;20119;-72
2022/09/01 01:16:18;;;;;;;8.35;2.70;;;19.20;99.90;;;;;;5072383;28;20058;-72
2022/09/01 01:18:45;;;;;;;9.52;2.80;;;19.70;99.90;;;;;;5073662;28;20036;-70
2022/09/01 01:24:24;;;;;;;;;;;20.00;99.90;;;;;;5074662;28;20150;-69
2022/09/01 01:26:52;;;;;;;9.05;2.47;;;19.80;99.90;;;;;;5073663;28;19927;-69
2022/09/01 01:29:20;;;;;;;9.18;2.78;;;20.00;99.90;;;;;;5073634;28;20449;-69
2022/09/01 01:31:48;;;;;;;9.30;2.50;;;19.90;99.90;;;;;;5074153;28;20025;-70
2022/09/01 01:34:16;;;;;;;8.65;2.17;;;20.10;99.90;;;;;;5073439;28;20063;-71
2022/09/01 01:36:50;;;;;;;9.77;2.63;;;20.20;99.90;;;;;;5073470;28;20033;-69
2022/09/01 01:39:24;;;;;;;9.05;2.88;;;20.60;99.90;;;;;;5072007;28;20036;-72
2022/09/01 01:41:53;;;;;;;13.10;2.35;;;19.90;99.90;;;;;;5073732;28;20469;-71
2022/09/01 01:44:26;;;;;;;5.17;1.87;;;20.10;99.90;;;;;;5073387;28;20017;-71
2022/09/01 01:46:56;;;;;;;8.63;2.20;;;20.30;99.90;;;;;;5073397;28;20024;-72
2022/09/01 01:49:26;;;;;;;7.22;1.67;;;20.20;99.90;;;;;;5073256;28;20017;-69
2022/09/01 01:51:56;;;;;;;;;;;19.90;99.90;;;;;;5072400;28;20025;-72
2022/09/01 01:54:30;;;;;;;8.17;1.67;;;19.70;99.90;;;;;;5072015;28;20364;-71
2022/09/01 01:56:58;;;;;;;5.28;2.58;;;19.40;99.90;;;;;;5071861;28;20257;-71
2022/09/01 01:59:28;;;;;;;10.80;2.35;;;19.60;99.90;;;;;;5071752;28;20031;-72
2022/09/01 02:01:55;;;;;;;8.80;1.90;;;19.90;99.90;;;;;;5073175;28;20537;-70
2022/09/01 02:04:23;;;;;;;8.02;2.05;;;20.30;99.90;;;;;;5071684;28;20477;-73
2022/09/01 02:06:50;;;;;;;6.30;1.85;;;20.20;99.90;;;;;;5075646;28;20115;-72
2022/09/01 02:09:22;;;;;;;10.65;1.98;;;19.80;99.90;;;;;;5077164;28;20078;-71
2022/09/01 02:11:55;;;;;;;6.75;1.92;;;19.40;99.90;;;;;;5077334;28;20020;-70
2022/09/01 02:14:23;;;;;;;7.95;1.77;;;19.20;99.90;;;;;;5077145;28;20056;-71
2022/09/01 02:16:51;;;;;;;8.68;2.15;;;18.90;99.90;;;;;;5077370;28;20380;-71
2022/09/01 02:19:22;;;;;;;6.65;1.73;;;18.80;99.90;;;;;;5076973;28;20028;-70
2022/09/01 02:21:55;;;;;;;9.27;2.50;;;18.90;99.90;;;;;;5076152;28;20025;-70
2022/09/01 02:24:23;;;;;;;7.53;2.35;;;18.80;99.90;;;;;;5077153;28;20052;-72
2022/09/01 02:26:51;;;;;;;11.05;2.08;;;19.40;99.90;;;;;;5076863;28;20020;-69
2022/09/01 02:29:25;;;;;;;11.23;2.72;;;19.50;99.90;;;;;;5075502;28;20399;-69
2022/09/01 02:31:54;;;;;;;9.07;1.83;;;19.70;99.90;;;;;;5075515;28;20035;-72
2022/09/01 02:34:23;;;;;;;11.10;2.35;;;20.00;99.90;;;;;;5076838;28;20069;-71
2022/09/01 02:36:53;;;;;;;10.10;1.90;;;19.70;99.90;;;;;;5076759;28;20311;-72
2022/09/01 02:39:28;;;;;;;8.68;2.05;;;19.50;99.90;;;;;;5075379;28;20037;-68
2022/09/01 02:41:57;;;;;;;11.93;2.83;;;19.40;99.90;;;;;;5075452;28;20392;-69
2022/09/01 02:44:26;;;;;;;7.18;1.80;;;19.70;99.90;;;;;;5075194;28;20443;-70
2022/09/01 02:46:53;;;;;;;12.05;2.53;;;19.60;99.90;;;;;;5076408;28;20016;-69
2022/09/01 02:49:28;;;;;;;10.05;2.38;;;19.60;99.90;;;;;;5076544;28;20021;-69
2022/09/01 02:52:00;;;;;;;12.60;2.08;;;19.50;99.90;;;;;;5074877;28;20073;-70
2022/09/01 02:54:29;;;;;;;12.45;2.38;;;19.20;99.90;;;;;;5076526;28;20031;-69
2022/09/01 02:56:57;;;;;;;10.82;2.85;;;19.10;99.90;;;;;;5076426;28;20025;-70
2022/09/01 02:59:27;;;;;;;10.45;2.60;;;19.30;99.90;;;;;;5076339;28;20121;-69
2022/09/01 03:01:56;;;;;;;;;;;19.80;99.90;;;;;;5076762;28;20024;-70
2022/09/01 03:04:26;;;;;;;10.52;1.90;;;20.20;99.90;;;;;;5076082;28;20258;-70
2022/09/01 03:06:57;;;;;;;10.23;2.50;;;20.60;99.90;;;;;;5074795;28;20048;-69
2022/09/01 03:09:24;;;;;;;11.73;2.50;;;20.40;99.90;;;;;;5076062;28;20029;-71
2022/09/01 03:11:54;;;;;;;11.70;2.38;;;20.40;99.90;;;;;;5074920;28;20056;-69
2022/09/01 03:14:23;;;;;;;11.25;2.72;;;20.40;99.90;;;;;;5076181;28;20046;-72
2022/09/01 03:16:50;;;;;;;9.75;2.25;;;20.10;99.90;;;;;;5074111;28;20036;-71
2022/09/01 03:19:18;;;;;;;11.15;2.80;;;19.90;99.90;;;;;;5074774;28;20043;-69
2022/09/01 03:21:47;;;;;;;7.60;2.33;;;19.60;99.90;;;;;;5076088;28;20024;-70
2022/09/01 03:24:17;;;;;;;11.68;2.80;;;19.40;99.90;;;;;;5076487;28;20100;-73
2022/09/01 03:26:46;;;;;;;10.98;3.10;;;19.50;99.90;;;;;;5074977;28;20051;-72
2022/09/01 03:29:14;;;;;;;12.18;2.83;;;19.60;99.90;;;;;;5076199;28;20031;-73
2022/09/01 03:31:42;;;;;;;10.65;2.90;;;19.60;99.90;;;;;;5076067;28;20017;-72
2022/09/01 03:34:09;;;;;;;11.32;2.40;;;19.60;99.90;;;;;;5074701;28;20123;-72
2022/09/01 03:36:38;;;;;;;14.13;2.88;;;19.60;99.90;;;;;;5075043;28;20062;-73
2022/09/01 03:39:08;;;;;;;9.48;2.28;;;19.30;99.90;;;;;;5074619;28;20028;-73
2022/09/01 03:41:36;;;;;;;8.68;2.30;;;19.30;99.90;;;;;;5058620;28;20119;-74
2022/09/01 03:44:04;;;;;;;8.80;2.55;;;19.40;99.90;;;;;;5074998;28;20028;-73
2022/09/01 03:46:32;;;;;;;11.43;2.53;;;19.40;99.90;;;;;;5076065;28;20538;-74
2022/09/01 03:49:05;;;;;;;14.80;3.67;;;19.20;99.90;;;;;;5076197;28;20103;-74
2022/09/01 03:51:33;;;;;;;12.25;2.80;;;19.10;99.90;;;;;;5074278;28;20024;-73
2022/09/01 03:54:03;;;;;;;11.50;3.00;;;19.00;99.90;;;;;;5075554;28;20044;-72
2022/09/01 03:56:32;;;;;;;9.73;2.25;;;19.00;99.90;;;;;;5074228;28;20131;-73
2022/09/01 03:59:00;;;;;;;11.45;2.65;;;19.40;99.90;;;;;;5074107;28;20124;-72
2022/09/01 04:01:33;;;;;;;10.10;2.78;;;19.80;99.90;;;;;;5075698;28;20498;-73
2022/09/01 04:04:01;;;;;;;11.82;3.13;;;20.00;99.90;;;;;;5075855;28;20046;-72
2022/09/01 04:06:29;;;;;;;9.27;2.45;;;19.80;99.90;;;;;;5075290;28;20423;-73
2022/09/01 04:09:01;;;;;;;11.07;3.05;;;19.60;99.90;;;;;;5075564;28;20024;-73
2022/09/01 04:11:30;;;;;;;12.70;2.80;;;19.50;99.90;;;;;;5074105;28;20028;-73
2022/09/01 04:13:58;;;;;;;12.35;2.55;;;19.60;99.90;;;;;;5074031;28;20503;-73
2022/09/01 04:19:24;;;;;;;8.90;2.80;;;19.40;99.90;;;;;;5075511;28;20055;-71
2022/09/01 04:21:54;;;;;;;13.18;2.70;;;19.90;99.90;;;;;;5074780;28;20116;-71
2022/09/01 04:24:26;;;;;;;11.23;2.97;;;20.00;99.90;;;;;;5073877;28;20052;-74
2022/09/01 04:26:57;;;;;;;10.18;2.25;;;20.50;99.90;;;;;;5073725;28;20036;-72
2022/09/01 04:29:27;;;;;;;11.10;1.88;;;21.00;99.90;;;;;;5073249;28;20125;-75
2022/09/01 04:32:00;;;;;;;11.05;1.95;;;20.90;99.90;;;;;;5074997;28;20499;-72
2022/09/01 04:34:35;;;;;;;11.40;2.58;;;20.30;99.90;;;;;;5075601;28;20021;-72
2022/09/01 04:37:11;;;;;;;9.73;2.50;;;19.80;99.90;;;;;;5073696;28;20020;-72
2022/09/01 04:39:47;;;;;;;10.00;2.20;;;19.70;99.90;;;;;;5074881;28;20393;-72
2022/09/01 04:42:15;;;;;;;13.15;2.60;;;19.80;99.90;;;;;;5074766;28;20025;-71
2022/09/01 04:44:44;;;;;;;9.68;2.50;;;20.00;99.90;;;;;;5073421;28;20020;-71
2022/09/01 04:47:16;;;;;;;7.22;2.25;;;20.10;99.90;;;;;;5074595;28;20012;-73
2022/09/01 04:49:44;;;;;;;10.80;2.03;;;20.20;99.90;;;;;;5074311;28;20446;-72
2022/09/01 04:52:11;;;;;;;8.63;2.13;;;20.10;99.90;;;;;;5072869;28;20067;-72
2022/09/01 04:54:39;;;;;;;10.82;2.42;;;20.20;99.90;;;;;;5073039;28;20048;-73
2022/09/01 04:57:07;;;;;;;10.20;2.42;;;20.20;99.90;;;;;;5074435;28;20017;-72
2022/09/01 04:59:34;;;;;;;10.75;2.50;;;20.30;99.90;;;;;;5072958;28;20021;-73
2022/09/01 05:02:02;;;;;;;15.68;2.80;;;20.30;99.90;;;;;;5074351;28;20017;-73
2022/09/01 05:04:32;;;;;;;12.27;2.40;;;20.30;99.90;;;;;;5074578;28;20093;-73
2022/09/01 05:07:01;;;;;;;11.70;2.53;;;20.30;99.90;;;;;;5073136;28;20055;-73
2022/09/01 05:09:37;;;;;;;13.52;2.13;;;20.20;99.90;;;;;;5074204;28;20362;-71
2022/09/01 05:12:11;;;;;;;9.60;2.28;;;20.20;99.90;;;;;;5072828;28;20370;-72
2022/09/01 05:14:47;;;;;;;11.98;2.10;;;20.10;99.90;;;;;;5073816;28;20050;-70
2022/09/01 05:17:16;;;;;;;10.77;2.30;;;19.90;99.90;;;;;;5056397;28;20033;-70
2022/09/01 05:19:46;;;;;;;11.27;2.47;;;20.00;99.90;;;;;;5073561;28;20032;-70
2022/09/01 05:22:14;;;;;;;14.60;2.50;;;20.00;99.90;;;;;;5074005;28;20475;-70
2022/09/01 05:24:41;;;;;;;6.95;1.92;;;20.00;99.90;;;;;;5073512;28;20423;-70
2022/09/01 05:27:11;;;;;;;10.38;2.63;;;20.00;99.90;;;;;;5073478;28;20025;-69
2022/09/01 05:29:40;;;;;;;13.73;2.55;;;19.90;99.90;;;;;;5072069;28;20028;-70
2022/09/01 05:32:11;;;;;;;9.25;2.05;;;19.80;99.90;;;;;;5072190;28;20078;-71
2022/09/01 05:34:41;;;;;;;8.18;1.70;;;19.30;99.90;;;;;;5073381;28;20012;-70
2022/09/01 05:37:10;;;;;;;8.73;2.00;;;19.20;99.90;;;;;;5073831;28;20533;-70
2022/09/01 05:39:38;;;;;;;8.98;2.05;;;19.20;99.90;;;;;;5071747;28;20025;-70
2022/09/01 05:42:09;;;;;;;9.68;1.73;;;19.30;99.90;;;;;;5072043;28;20459;-69
2022/09/01 05:44:42;;;;;;;10.15;2.13;;;19.20;99.90;;;;;;5073694;28;20496;-69
2022/09/01 05:47:11;;;;;;;10.77;2.25;;;18.70;99.90;;;;;;5073672;28;20491;-70
2022/09/01 05:49:39;;;;;;;16.52;2.85;;;18.40;99.90;;;;;;5072107;28;20032;-70
2022/09/01 05:52:08;;;;;;;11.80;2.65;;;18.30;99.90;;;;;;5071720;28;20017;-71
2022/09/01 05:54:35;;;;;;;9.55;2.00;;;18.30;99.90;;;;;;5071955;28;20350;-70
2022/09/01 05:57:03;;;;;;;11.10;2.38;;;18.20;99.90;;;;;;5073530;28;20060;-70
2022/09/01 05:59:31;;;;;;;10.73;1.92;;;18.30;99.90;;;;;;5071954;28;20485;-70
2022/09/01 06:01:59;;;;;;;9.55;2.10;;;18.30;99.90;;;;;;5072081;28;20048;-70
2022/09/01 06:04:28;;;;;;;13.65;2.03;;;18.40;99.90;;;;;;5073097;28;20476;-70
2022/09/01 06:06:56;;;;;;;11.13;2.70;;;18.60;99.90;;;;;;5073411;28;20054;-71
2022/09/01 06:09:23;;;;;;;13.65;2.10;;;18.80;99.90;;;;;;5071613;28;20025;-70
2022/09/01 06:11:50;;;;;;;12.23;2.42;;;18.90;99.90;;;;;;5073059;28;20385;-70
2022/09/01 06:14:19;;;;;;;7.32;2.08;;;18.80;99.90;;;;;;5072908;28;20070;-70
2022/09/01 06:16:47;;;;;;;11.52;2.60;;;18.60;99.90;;;;;;5073140;28;20021;-70
2022/09/01 06:19:14;;;;;;;13.20;2.47;;;18.50;99.90;;;;;;5071635;28;20036;-70
2022/09/01 06:21:41;;;;;;;9.13;1.55;;;18.20;99.90;;;;;;5073517;28;20421;-71
2022/09/01 06:24:09;;;;;;;11.75;2.10;;;18.10;99.90;;;;;;5071842;28;20127;-69
2022/09/01 06:26:38;;;;;;;18.88;2.72;;;17.90;99.90;;;;;;5071544;28;20027;-70
2022/09/01 06:29:14;;;;;;;11.95;2.28;;;17.80;99.90;;;;;;5072904;28;20027;-69
2022/09/01 06:31:46;;;;;;;12.52;2.85;;;17.70;99.90;;;;;;5071785;28;20025;-70
2022/09/01 06:34:16;;;;;;;12.15;2.58;;;17.80;99.90;;;;;;5071418;28;20484;-70
2022/09/01 06:36:46;;;;;;;9.50;2.53;;;17.90;99.90;;;;;;5072839;28;20454;-70
2022/09/01 06:39:20;;;;;;;14.30;2.50;;;17.90;99.90;;;;;;5072949;28;20056;-71
2022/09/01 06:41:51;;;;;;;13.77;2.50;;;17.90;99.90;;;;;;5071835;28;20074;-72
2022/09/01 06:44:21;;;;;;;12.82;2.58;;;17.90;99.90;;;;;;5071945;28;20370;-70
2022/09/01 06:46:50;;;;;;;20.85;3.53;;;17.80;99.90;;;;;;5073411;28;20029;-70
2022/09/01 06:49:20;;;;;;;10.70;2.47;;;17.80;99.90;;;;;;5071443;28;20389;-72
2022/09/01 06:51:51;;;;;;;16.85;4.38;;;17.80;99.90;;;;;;5073420;28;20500;-72
2022/09/01 06:54:21;;;;;;;11.75;4.13;;;17.70;99.90;;;;;;5076704;28;20065;-73
2022/09/01 06:56:49;;;;;;;21.42;6.30;;;17.60;99.90;;;;;;5076899;28;20381;-72
2022/09/01 06:59:16;;;;;;;28.85;13.55;;;17.50;99.90;;;;;;5074895;28;20036;-72
2022/09/01 07:01:46;;;;;;;32.65;19.45;;;17.40;99.90;;;;;;5076431;28;20075;-73
2022/09/01 07:04:18;;;;;;;14.40;4.05;;;17.30;99.90;;;;;;5076412;28;20205;-72
2022/09/01 07:06:49;;;;;;;39.17;22.65;;;17.20;99.90;;;;;;5076456;28;20016;-73
2022/09/01 07:09:17;;;;;;;8.82;2.92;;;17.10;99.90;;;;;;5076194;28;20025;-73
2022/09/01 07:11:45;;;;;;;18.17;3.88;;;17.00;99.90;;;;;;5076005;28;20036;-70
2022/09/01 07:14:15;;;;;;;23.38;8.85;;;16.90;99.90;;;;;;5075848;28;20074;-71
2022/09/01 07:16:43;;;;;;;16.45;2.72;;;16.90;99.90;;;;;;5076370;28;20028;-73
2022/09/01 07:19:13;;;;;;;13.13;3.28;;;16.80;99.90;;;;;;5074919;28;20025;-72
2022/09/01 07:21:42;;;;;;;13.75;3.45;;;16.70;99.90;;;;;;5075266;28;20119;-73
2022/09/01 07:24:11;;;;;;;12.40;2.30;;;16.60;99.90;;;;;;5075168;28;20032;-72
2022/09/01 07:26:41;;;;;;;12.70;2.92;;;16.60;99.90;;;;;;5076945;28;20027;-73
2022/09/01 07:29:09;;;;;;;15.63;3.00;;;16.50;99.90;;;;;;5076268;28;20021;-74
2022/09/01 07:31:41;;;;;;;12.02;2.95;;;16.40;99.90;;;;;;5074890;28;20078;-73
2022/09/01 07:34:11;;;;;;;13.18;3.00;;;16.40;99.90;;;;;;5075063;28;20445;-76
2022/09/01 07:36:41;;;;;;;10.80;2.50;;;16.30;99.90;;;;;;5075081;28;20025;-73
2022/09/01 07:39:10;;;;;;;10.88;2.25;;;16.20;99.90;;;;;;5076388;28;20028;-74
2022/09/01 07:41:40;;;;;;;12.32;2.30;;;16.20;99.90;;;;;;5076344;28;20021;-73
2022/09/01 07:44:11;;;;;;;11.20;2.90;;;16.20;99.90;;;;;;5074291;28;20020;-73
2022/09/01 07:46:39;;;;;;;17.75;3.05;;;16.20;99.90;;;;;;5074732;28;20041;-72
2022/09/01 07:49:08;;;;;;;14.07;2.50;;;16.10;99.90;;;;;;5074551;28;20506;-73
2022/09/01 07:51:35;;;;;;;14.65;2.70;;;16.00;99.90;;;;;;5075684;28;20056;-73
2022/09/01 07:54:02;;;;;;;19.58;4.45;;;16.00;99.90;;;;;;5074054;28;20532;-73
2022/09/01 07:56:30;;;;;;;15.75;3.13;;;16.00;99.90;;;;;;5074125;28;20028;-74
2022/09/01 07:58:58;;;;;;;15.82;2.90;;;15.90;99.90;;;;;;5073854;28;20029;-73
2022/09/01 08:01:27;;;;;;;15.48;2.55;;;15.90;99.90;;;;;;5074340;28;20025;-73
2022/09/01 08:03:59;;;;;;;16.92;2.90;;;15.90;99.90;;;;;;5073842;28;20051;-73
2022/09/01 08:06:28;;;;;;;15.25;3.08;;;15.90;99.90;;;;;;5074017;28;20016;-73
2022/09/01 08:08:59;;;;;;;13.13;2.80;;;15.90;99.90;;;;;;5075568;28;20040;-74
2022/09/01 08:11:30;;;;;;;13.63;2.42;;;15.80;99.90;;;;;;5073630;28;20025;-74
2022/09/01 08:13:58;;;;;;;15.05;2.47;;;15.80;99.90;;;;;;5075385;28;20075;-73
2022/09/01 08:16:26;;;;;;;14.43;2.53;;;15.70;99.90;;;;;;5075426;28;20040;-73
2022/09/01 08:18:54;;;;;;;17.35;2.40;;;15.70;99.90;;;;;;5073807;28;20056;-72
2022/09/01 08:21:23;;;;;;;13.93;2.58;;;15.70;99.90;;;;;;5073981;28;20480;-73
2022/09/01 08:23:53;;;;;;;15.90;3.70;;;15.70;99.90;;;;;;5057528;28;20032;-73
2022/09/01 08:26:24;;;;;;;17.85;2.95;;;15.70;99.90;;;;;;5074038;28;20020;-73
2022/09/01 08:28:52;;;;;;;9.75;2.40;;;15.70;99.90;;;;;;5073807;28;20115;-73
2022/09/01 08:31:20;;;;;;;14.00;2.67;;;15.60;99.90;;;;;;5075736;28;20553;-73
2022/09/01 08:33:49;;;;;;;15.95;3.10;;;15.60;99.90;;;;;;5073993;28;20024;-74
2022/09/01 08:36:17;;;;;;;12.15;2.70;;;15.60;99.90;;;;;;5075040;28;20028;-73
2022/09/01 08:38:45;;;;;;;11.93;3.55;;;15.60;99.90;;;;;;5073585;28;20500;-73
2022/09/01 08:41:37;;;;;;;15.10;3.05;;;15.60;99.90;;;;;;5073496;28;20389;-74
2022/09/01 08:44:26;;;;;;;15.45;2.72;;;15.60;99.90;;;;;;5074109;28;20024;-73
2022/09/01 08:47:02;;;;;;;16.60;2.80;;;15.60;99.90;;;;;;5075271;28;20025;-73
2022/09/01 08:49:31;;;;;;;12.43;2.80;;;15.70;99.90;;;;;;5073803;28;20067;-73
2022/09/01 08:52:21;;;;;;;13.70;2.47;;;15.60;99.90;;;;;;5074739;28;20028;-74
2022/09/01 08:54:56;;;;;;;;;;;15.70;99.90;;;;;;5075246;28;20028;-74
2022/09/01 08:57:35;;;;;;;13.63;2.80;;;15.70;99.90;;;;;;5073970;28;19912;-74
2022/09/01 09:00:04;;;;;;;15.50;2.95;;;15.70;99.90;;;;;;5073722;28;20388;-74
2022/09/01 09:02:59;;;;;;;17.00;3.45;;;15.60;99.90;;;;;;5073920;28;20051;-75
2022/09/01 09:05:44;;;;;;;;;;;15.60;99.90;;;;;;5075336;28;20017;-72
2022/09/01 09:08:30;;;;;;;11.02;2.45;;;15.60;99.90;;;;;;5075123;28;20245;-74
2022/09/01 09:11:20;;;;;;;11.63;2.53;;;15.70;99.90;;;;;;5075289;28;20036;-73
2022/09/01 09:13:56;;;;;;;12.65;2.80;;;15.80;99.90;;;;;;5074358;28;20025;-75
2022/09/01 09:16:44;;;;;;;13.27;2.47;;;15.80;99.90;;;;;;5074898;28;20029;-73
2022/09/01 09:19:32;;;;;;;13.63;2.30;;;15.80;99.90;;;;;;5074117;28;20501;-73
2022/09/01 09:22:04;;;;;;;15.30;2.17;;;15.80;99.90;;;;;;5073455;28;20107;-73
2022/09/01 09:24:55;;;;;;;14.18;2.80;;;15.80;99.90;;;;;;5072664;28;20023;-73
2022/09/01 09:27:32;;;;;;;11.93;2.42;;;15.80;99.90;;;;;;5075034;28;20449;-73
2022/09/01 09:30:04;;;;;;;15.85;3.60;;;15.90;99.90;;;;;;5074587;28;20425;-73
2022/09/01 09:32:51;;;;;;;11.88;2.10;;;15.80;99.90;;;;;;5074557;28;20021;-75
2022/09/01 09:35:30;;;;;;;13.05;2.10;;;15.80;99.90;;;;;;5074718;28;20031;-76
2022/09/01 09:38:21;;;;;;;18.15;3.15;;;15.80;99.90;;;;;;5075219;28;20036;-76
2022/09/01 09:41:14;;;;;;;16.63;2.47;;;15.80;99.90;;;;;;5074123;28;20032;-76
2022/09/01 09:44:04;;;;;;;12.35;2.53;;;15.80;99.90;;;;;;5075032;28;20096;-76
2022/09/01 09:46:36;;;;;;;16.90;2.63;;;15.80;99.90;;;;;;5073644;28;20023;-75
2022/09/01 09:49:18;;;;;;;20.20;2.80;;;15.80;99.90;;;;;;5073634;28;20029;-76
2022/09/01 09:51:48;;;;;;;16.67;2.80;;;15.70;99.90;;;;;;5073863;28;20028;-76
2022/09/01 09:54:26;;;;;;;15.45;2.40;;;15.70;99.90;;;;;;5073165;28;20049;-76
2022/09/01 09:57:16;;;;;;;14.65;2.65;;;15.70;99.90;;;;;;5074036;28;20036;-74
2022/09/01 09:59:54;;;;;;;10.82;2.50;;;15.60;99.90;;;;;;5074319;28;20107;-76
2022/09/01 10:02:43;;;;;;;14.00;3.20;;;15.60;99.90;;;;;;5074223;28;20048;-76
2022/09/01 10:05:28;;;;;;;17.92;3.03;;;15.60;99.90;;;;;;5075284;28;20029;-77
2022/09/01 10:07:57;;;;;;;17.35;2.35;;;15.60;99.90;;;;;;5073879;28;20032;-76
2022/09/01 10:10:30;;;;;;;17.85;3.25;;;15.60;99.90;;;;;;5073351;28;20032;-77
2022/09/01 10:12:59;;;;;;;13.15;2.58;;;15.60;99.90;;;;;;5074279;28;20024;-73
2022/09/01 10:15:31;;;;;;;17.95;3.35;;;15.60;99.90;;;;;;5074255;28;20103;-76
2022/09/01 10:18:13;;;;;;;13.80;2.55;;;15.60;99.90;;;;;;5072628;28;20078;-74
2022/09/01 10:20:56;;;;;;;18.52;2.88;;;15.60;99.90;;;;;;5072798;28;20074;-74
2022/09/01 10:23:26;;;;;;;14.93;2.80;;;15.60;99.90;;;;;;5073795;28;20093;-76
2022/09/01 10:26:01;;;;;;;13.23;2.65;;;15.60;99.90;;;;;;5073431;28;20025;-75
2022/09/01 10:28:31;;;;;;;13.85;2.88;;;15.60;99.90;;;;;;5078418;28;20025;-75
2022/09/01 10:31:00;;;;;;;14.20;2.63;;;15.60;99.90;;;;;;5077740;28;20191;-75
2022/09/01 10:33:27;;;;;;;15.35;2.90;;;15.50;99.90;;;;;;5076874;28;20115;-76
2022/09/01 10:35:55;;;;;;;14.63;2.38;;;15.50;99.90;;;;;;5077811;28;20032;-75
2022/09/01 10:38:27;;;;;;;17.27;2.83;;;15.50;99.90;;;;;;5077850;28;20500;-76
2022/09/01 10:41:06;;;;;;;12.75;2.35;;;15.60;99.90;;;;;;5076488;28;20126;-75
2022/09/01 10:43:39;;;;;;;16.38;3.47;;;15.60;99.90;;;;;;5078162;28;20027;-76
2022/09/01 10:46:33;;;;;;;19.45;2.95;;;15.60;99.90;;;;;;5076291;28;20442;-76
2022/09/01 10:49:00;;;;;;;13.43;2.55;;;15.50;99.90;;;;;;5070991;28;20028;-74
2022/09/01 10:51:27;;;;;;;11.07;2.10;;;15.40;99.90;;;;;;5075910;28;20039;-75
2022/09/01 10:53:59;;;;;;;13.80;2.33;;;15.40;99.90;;;;;;5076080;28;20052;-75
2022/09/01 10:56:41;;;;;;;15.40;3.30;;;15.40;99.90;;;;;;5076070;28;20032;-75
2022/09/01 10:59:25;;;;;;;17.70;3.53;;;15.30;99.90;;;;;;5077340;28;20035;-75
2022/09/01 11:01:52;;;;;;;19.35;3.08;;;15.30;99.90;;;;;;5075980;28;20029;-74
2022/09/01 11:04:39;;;;;;;16.55;3.08;;;15.30;99.90;;;;;;5077495;28;20028;-74
2022/09/01 11:07:33;;;;;;;17.20;3.00;;;15.30;99.90;;;;;;5045913;28;20562;-73
2022/09/01 11:10:07;;;;;;;16.70;2.75;;;15.30;99.90;;;;;;5072067;28;20040;-76
2022/09/01 11:13:17;;;;;;;18.55;3.35;;;15.30;99.90;;;;;;5077077;28;20032;-75
2022/09/01 11:15:45;;;;;;;19.80;3.42;;;15.20;99.90;;;;;;5077050;28;20503;-75
2022/09/01 11:18:29;;;;;;;14.38;2.72;;;15.20;99.90;;;;;;5077547;28;20067;-75
2022/09/01 11:21:24;;;;;;;17.80;3.40;;;15.20;99.90;;;;;;5077149;28;20383;-74
2022/09/01 11:24:11;;;;;;;16.65;3.55;;;15.20;99.90;;;;;;5075988;28;20477;-75
2022/09/01 11:26:48;;;;;;;11.98;2.83;;;15.20;99.90;;;;;;5076779;28;20029;-73
2022/09/01 11:30:09;;;;;;;13.02;2.85;;;15.20;99.90;;;;;;5075321;28;20028;-75
2022/09/01 11:32:40;;;;;;;16.42;2.53;;;15.20;99.90;;;;;;4997826;28;20420;-76
2022/09/01 11:35:24;;;;;;;16.10;2.85;;;15.10;99.90;;;;;;5066186;28;20033;-76
2022/09/01 11:37:56;;;;;;;12.63;2.65;;;15.20;99.90;;;;;;5074931;28;20021;-76
2022/09/01 11:40:29;;;;;;;20.10;3.45;;;15.20;99.90;;;;;;5077652;28;20544;-76
2022/09/01 11:43:00;;;;;;;16.35;2.95;;;15.10;99.90;;;;;;5075322;28;20024;-76
2022/09/01 11:45:32;;;;;;;16.60;3.05;;;15.10;99.90;;;;;;5075700;28;20025;-76
2022/09/01 11:48:08;;;;;;;17.98;2.92;;;15.10;99.90;;;;;;5075831;28;20051;-76
2022/09/01 11:50:39;;;;;;;14.75;2.80;;;15.20;99.90;;;;;;5076128;28;20432;-77
2022/09/01 11:53:10;;;;;;;14.20;2.78;;;15.20;99.90;;;;;;5075155;28;20531;-75
2022/09/01 11:55:50;;;;;;;14.88;3.20;;;15.20;99.90;;;;;;5076768;28;20028;-75
2022/09/01 11:58:33;;;;;;;17.52;3.00;;;15.20;99.90;;;;;;5078137;28;20043;-75
2022/09/01 12:01:22;;;;;;;16.83;3.05;;;15.20;99.90;;;;;;5075862;28;20550;-76
2022/09/01 12:03:51;;;;;;;11.90;2.63;;;15.20;99.90;;;;;;5076826;28;20024;-75
2022/09/01 12:06:24;;;;;;;15.48;3.22;;;15.20;99.90;;;;;;5076281;28;20358;-76
2022/09/01 12:08:57;;;;;;;14.25;2.42;;;15.10;99.90;;;;;;5076555;28;20484;-76
2022/09/01 12:11:30;;;;;;;18.08;2.53;;;15.10;99.90;;;;;;5075397;28;20029;-76
2022/09/01 12:14:04;;;;;;;14.32;2.80;;;15.10;99.90;;;;;;5075153;28;20033;-76
2022/09/01 12:16:36;;;;;;;14.23;3.53;;;15.10;99.90;;;;;;5076552;28;20028;-76
2022/09/01 12:19:06;;;;;;;12.88;2.72;;;15.10;99.90;;;;;;5075056;28;20142;-75
2022/09/01 12:21:55;;;;;;;22.13;3.08;;;15.00;99.90;;;;;;5076180;28;20070;-77
2022/09/01 12:24:23;;;;;;;8.75;2.28;;;15.00;99.90;;;;;;5075972;28;20021;-75
2022/09/01 12:26:57;;;;;;;18.05;2.55;;;15.10;99.90;;;;;;5075883;28;20020;-76
2022/09/01 12:29:25;;;;;;;14.65;3.75;;;15.00;99.90;;;;;;5075648;28;20108;-77
2022/09/01 12:31:54;;;;;;;12.23;2.22;;;15.00;99.90;;;;;;5073983;28;20082;-77
2022/09/01 12:34:27;;;;;;;14.50;2.70;;;14.90;99.90;;;;;;5075264;28;20020;-76
2022/09/01 12:37:22;;;;;;;12.05;3.05;;;14.90;99.90;;;;;;5074212;28;20086;-76
2022/09/01 12:39:58;;;;;;;17.15;2.88;;;14.80;99.90;;;;;;5069881;28;20063;-77
2022/09/01 12:42:31;;;;;;;14.70;2.95;;;14.80;99.90;;;;;;5074398;28;20067;-76
2022/09/01 12:45:04;;;;;;;10.18;2.38;;;14.80;99.90;;;;;;5074393;28;20107;-76
2022/09/01 12:47:36;;;;;;;15.20;3.03;;;14.70;99.90;;;;;;5074699;28;20067;-76
2022/09/01 12:50:15;;;;;;;8.93;2.85;;;14.70;99.90;;;;;;5074427;28;20073;-76
2022/09/01 12:52:50;;;;;;;9.27;2.10;;;14.70;99.90;;;;;;5073794;28;20127;-77
2022/09/01 12:55:22;;;;;;;13.43;3.30;;;14.70;99.90;;;;;;5073773;28;20053;-76
2022/09/01 12:57:56;;;;;;;9.57;2.47;;;14.70;99.90;;;;;;5073768;28;20028;-76
2022/09/01 13:00:53;;;;;;;10.57;3.38;;;14.60;99.90;;;;;;5074965;28;20068;-76
2022/09/01 13:03:21;;;;;;;13.35;2.40;;;14.60;99.90;;;;;;5075551;28;20151;-76
2022/09/01 13:05:53;;;;;;;13.13;2.92;;;14.50;99.90;;;;;;5074021;28;20020;-75
2022/09/01 13:08:27;;;;;;;11.13;2.22;;;14.50;99.90;;;;;;5074976;28;20017;-76
2022/09/01 13:10:56;;;;;;;14.13;3.08;;;14.40;99.90;;;;;;5073460;28;20439;-76
2022/09/01 13:13:25;;;;;;;12.05;2.47;;;14.40;99.90;;;;;;5074709;28;20032;-77
2022/09/01 13:16:00;;;;;;;12.23;2.70;;;14.40;99.90;;;;;;5073509;28;20099;-77